Time;durP1;ratioP1;P1;durP2;ratioP2;P2;SDS_P1;SDS_P2;PMS_P1;PMS_P2;Temp;Humidity;BMP_temperature;BMP_pressure;BME280_temperature;BME280_humidity;BME280_pressure;Samples;Min_cycle;Max_cycle;Signal;HPM_P1;HPM_P2
2023/07/12 00:01:53;;;;;;;;;;;;;;;31.14;26.53;98065.28;5075055;28;19966;-90
2023/07/12 00:04:19;;;;;;;;;;;;;;;31.17;26.26;98059.44;5069499;28;19929;-90
2023/07/12 00:06:45;;;;;;;;;;;;;;;31.32;26.08;98057.41;5056534;28;20016;-90
2023/07/12 00:09:12;;;;;;;;;;;;;;;31.44;25.62;98052.03;5066421;28;19986;-90
2023/07/12 00:11:38;;;;;;;;;;;;;;;31.53;25.66;98044.19;5060426;28;20293;-90
2023/07/12 00:14:04;;;;;;;;;;;;;;;31.28;26.01;98041.84;5058064;28;20019;-90
2023/07/12 00:16:36;;;;;;;;;;;;;;;31.37;25.78;98041.78;5064141;28;20449;-90
2023/07/12 00:19:02;;;;;;;;;;;;;;;31.45;25.89;98043.00;5056329;28;19921;-90
2023/07/12 00:21:29;;;;;;;;;;;;;;;31.33;25.89;98035.50;5055997;28;20388;-90
2023/07/12 00:23:56;;;;;;;;;;;;;;;30.89;26.07;98035.34;5059739;28;20368;-90
2023/07/12 00:26:28;;;;;;;;;;;;;;;30.93;26.14;98040.81;5074585;28;19983;-90
2023/07/12 00:28:55;;;;;;;;;;;;;;;30.67;26.44;98040.47;5060254;28;19927;-90
2023/07/12 00:31:21;;;;;;;;;;;;;;;30.52;27.10;98040.41;5063452;28;19917;-90
2023/07/12 00:33:47;;;;;;;;;;;;;;;30.60;26.87;98032.31;5069799;28;19924;-90
2023/07/12 00:36:16;;;;;;;;;;;;;;;31.08;26.16;98030.34;5055408;28;19952;-90
2023/07/12 00:38:42;;;;;;;;;;;;;;;31.02;26.31;98029.41;5072581;28;19927;-90
2023/07/12 00:41:26;;;;;;;;;;;;;;;30.45;27.07;98032.25;5062811;28;20010;-90
2023/07/12 00:43:54;;;;;;;;;;;;;;;30.46;26.92;98022.47;5068005;28;20333;-90
2023/07/12 00:46:53;;;;;;;;;;;;;;;30.90;26.48;98028.38;5069665;28;19921;-90
2023/07/12 00:49:19;;;;;;;;;;;;;;;30.98;26.44;98021.09;5041608;28;19920;-90
2023/07/12 00:51:45;;;;;;;;;;;;;;;30.67;26.69;98023.47;5064532;28;19920;-90
2023/07/12 00:54:12;;;;;;;;;;;;;;;30.35;27.32;98021.41;5066123;28;19927;-90
2023/07/12 00:56:38;;;;;;;;;;;;;;;30.57;26.68;98021.94;5070527;28;20018;-90
2023/07/12 00:59:09;;;;;;;;;;;;;;;30.52;26.82;98017.72;5062777;28;19921;-90
2023/07/12 01:01:36;;;;;;;;;;;;;;;30.48;26.90;98013.50;5061616;28;19971;-90
2023/07/12 01:04:03;;;;;;;;;;;;;;;30.42;26.85;98007.69;5059525;28;20396;-89
2023/07/12 01:06:30;;;;;;;;;;;;;;;30.19;27.17;97999.91;5064469;28;19921;-89
2023/07/12 01:08:59;;;;;;;;;;;;;;;30.40;27.04;97998.88;5063242;28;20385;-90
2023/07/12 01:11:25;;;;;;;;;;;;;;;30.53;26.58;98001.50;5058316;28;19921;-89
2023/07/12 01:13:51;;;;;;;;;;;;;;;30.75;26.21;98005.63;5057209;28;19920;-90
2023/07/12 01:16:18;;;;;;;;;;;;;;;31.03;26.12;98003.44;5066402;28;19925;-89
2023/07/12 01:18:44;;;;;;;;;;;;;;;30.93;26.29;98004.75;5069386;28;20390;-90
2023/07/12 01:21:10;;;;;;;;;;;;;;;30.87;26.07;97998.16;5056830;28;19921;-90
2023/07/12 01:23:38;;;;;;;;;;;;;;;30.88;26.39;97996.13;5056197;28;19928;-90
2023/07/12 01:26:19;;;;;;;;;;;;;;;30.82;26.17;97986.69;5068905;28;19920;-90
2023/07/12 01:28:47;;;;;;;;;;;;;;;30.88;25.90;97987.59;5069718;28;19920;-90
2023/07/12 01:31:13;;;;;;;;;;;;;;;30.96;25.75;97992.44;5058877;28;19921;-89
2023/07/12 01:33:39;;;;;;;;;;;;;;;30.68;26.83;97991.03;5058204;28;20007;-90
2023/07/12 01:36:06;;;;;;;;;;;;;;;30.75;26.31;97985.00;5064277;28;19928;-89
2023/07/12 01:38:32;;;;;;;;;;;;;;;30.85;26.04;97986.50;5056617;28;19928;-90
2023/07/12 01:40:58;;;;;;;;;;;;;;;31.03;25.85;97982.78;5063089;28;19925;-90
2023/07/12 01:43:24;;;;;;;;;;;;;;;31.02;25.78;97984.84;5057187;28;19921;-90
2023/07/12 01:45:50;;;;;;;;;;;;;;;31.13;25.54;97990.75;5060344;28;19921;-90
2023/07/12 01:48:16;;;;;;;;;;;;;;;31.37;24.98;97996.38;5068017;28;19924;-90
2023/07/12 01:50:42;;;;;;;;;;;;;;;31.49;24.94;97980.38;5060815;28;19921;-90
2023/07/12 01:53:08;;;;;;;;;;;;;;;31.12;25.91;97975.00;5055931;28;19966;-90
2023/07/12 01:55:34;;;;;;;;;;;;;;;30.89;26.11;97969.34;5056376;28;20451;-90
2023/07/12 01:58:01;;;;;;;;;;;;;;;30.86;26.30;97964.59;5066807;28;19960;-90
2023/07/12 02:00:27;;;;;;;;;;;;;;;30.92;25.95;97965.53;5057145;28;19916;-90
2023/07/12 02:02:53;;;;;;;;;;;;;;;30.90;25.92;97954.66;5058206;28;19921;-89
2023/07/12 02:05:19;;;;;;;;;;;;;;;30.96;25.80;97955.59;5071614;28;20003;-90
2023/07/12 02:07:45;;;;;;;;;;;;;;;31.26;25.01;97953.59;5070281;28;19916;-89
2023/07/12 02:10:13;;;;;;;;;;;;;;;31.36;24.78;97952.25;5070599;28;19966;-89
2023/07/12 02:12:39;;;;;;;;;;;;;;;31.27;24.93;97950.25;5062553;28;19924;-89
2023/07/12 02:15:06;;;;;;;;;;;;;;;30.94;25.23;97940.31;5069683;28;19928;-90
2023/07/12 02:17:32;;;;;;;;;;;;;;;30.87;25.63;97935.78;5057721;28;19968;-90
2023/07/12 02:19:58;;;;;;;;;;;;;;;30.84;25.58;97930.28;5061492;28;19923;-90
2023/07/12 02:22:24;;;;;;;;;;;;;;;30.89;25.50;97926.81;5073430;28;19927;-90
2023/07/12 02:24:50;;;;;;;;;;;;;;;31.08;25.13;97931.06;5067955;28;20025;-90
2023/07/12 02:27:16;;;;;;;;;;;;;;;31.08;25.27;97933.91;5073420;28;19946;-89
2023/07/12 02:29:42;;;;;;;;;;;;;;;31.27;24.64;97938.91;5056307;28;20285;-90
2023/07/12 02:32:08;;;;;;;;;;;;;;;31.13;25.04;97936.06;5064905;28;19933;-90
2023/07/12 02:34:34;;;;;;;;;;;;;;;31.32;24.50;97929.72;5061497;28;20422;-90
2023/07/12 02:37:00;;;;;;;;;;;;;;;31.48;24.28;97934.19;5067468;28;19936;-90
2023/07/12 02:39:26;;;;;;;;;;;;;;;31.62;24.09;97927.75;5066307;28;19920;-90
2023/07/12 02:41:52;;;;;;;;;;;;;;;31.54;24.39;97918.03;5056852;28;19924;-90
2023/07/12 02:44:18;;;;;;;;;;;;;;;31.42;24.61;97925.56;5058555;28;19927;-90
2023/07/12 02:46:44;;;;;;;;;;;;;;;31.37;24.36;97920.53;5055512;28;19921;-90
2023/07/12 02:49:10;;;;;;;;;;;;;;;31.60;24.41;97918.16;5056617;28;20419;-90
2023/07/12 02:51:36;;;;;;;;;;;;;;;31.44;24.36;97919.41;5063797;28;19968;-90
2023/07/12 02:54:02;;;;;;;;;;;;;;;31.00;25.11;97912.84;5059565;28;19967;-90
2023/07/12 02:56:28;;;;;;;;;;;;;;;31.00;25.04;97910.00;5071072;28;19921;-90
2023/07/12 02:58:54;;;;;;;;;;;;;;;31.16;24.86;97907.50;5063897;28;19920;-90
2023/07/12 03:01:20;;;;;;;;;;;;;;;31.29;24.73;97898.72;5059756;28;19927;-90
2023/07/12 03:03:46;;;;;;;;;;;;;;;31.32;24.70;97892.84;5060838;28;19925;-90
2023/07/12 03:06:12;;;;;;;;;;;;;;;31.37;24.43;97889.31;5071060;28;19963;-89
2023/07/12 03:08:38;;;;;;;;;;;;;;;31.44;24.25;97884.59;5066892;28;19920;-90
2023/07/12 03:11:07;;;;;;;;;;;;;;;31.32;24.57;97886.41;5056781;28;20019;-90
2023/07/12 03:13:33;;;;;;;;;;;;;;;31.30;24.51;97883.25;5058222;28;19959;-90
2023/07/12 03:16:02;;;;;;;;;;;;;;;31.76;24.02;97872.22;5065393;28;19927;-90
2023/07/12 03:18:28;;;;;;;;;;;;;;;31.83;24.01;97878.28;5093058;28;20000;-90
2023/07/12 03:20:58;;;;;;;;;;;;;;;31.67;23.98;97890.13;5072721;28;20363;-91
2023/07/12 03:23:24;;;;;;;;;;;;;;;31.64;24.21;97888.28;5057589;28;20331;-89
2023/07/12 03:25:50;;;;;;;;;;;;;;;31.62;24.11;97887.22;5060301;28;19924;-88
2023/07/12 03:28:16;;;;;;;;;;;;;;;31.70;24.51;97891.22;5056731;28;20284;-87
2023/07/12 03:30:42;;;;;;;;;;;;;;;31.81;24.28;97892.16;5061843;28;20015;-88
2023/07/12 03:33:08;;;;;;;;;;;;;;;32.07;23.89;97895.97;5063162;28;19947;-88
2023/07/12 03:35:34;;;;;;;;;;;;;;;31.86;25.00;97897.16;5075978;28;19955;-89
2023/07/12 03:38:00;;;;;;;;;;;;;;;32.00;24.98;97899.22;5073553;28;20679;-90
2023/07/12 03:40:26;;;;;;;;;;;;;;;32.28;24.76;97887.50;5067060;28;20020;-89
2023/07/12 03:42:52;;;;;;;;;;;;;;;32.61;24.64;97883.06;5064365;28;20027;-89
2023/07/12 03:45:18;;;;;;;;;;;;;;;32.67;25.08;97888.84;5065175;28;20007;-90
2023/07/12 03:47:44;;;;;;;;;;;;;;;32.82;25.34;97886.69;5063476;28;19926;-90
2023/07/12 03:50:10;;;;;;;;;;;;;;;33.00;25.15;97888.47;5062199;28;19920;-89
2023/07/12 03:52:36;;;;;;;;;;;;;;;32.94;24.51;97874.16;5065934;28;19975;-90
2023/07/12 03:55:03;;;;;;;;;;;;;;;32.88;25.12;97873.34;5059177;28;19960;-90
2023/07/12 03:57:29;;;;;;;;;;;;;;;33.31;25.52;97877.97;5067479;28;20272;-89
2023/07/12 03:59:55;;;;;;;;;;;;;;;33.89;24.25;97868.13;5075831;28;20397;-90
2023/07/12 04:02:21;;;;;;;;;;;;;;;34.08;23.49;97865.72;5067398;28;19963;-90
2023/07/12 04:04:47;;;;;;;;;;;;;;;34.38;23.76;97860.47;5065204;28;19926;-87
2023/07/12 04:07:13;;;;;;;;;;;;;;;34.33;23.51;97864.06;5067554;28;19982;-87
2023/07/12 04:09:39;;;;;;;;;;;;;;;34.50;22.60;97853.50;5061718;28;20442;-87
2023/07/12 04:12:05;;;;;;;;;;;;;;;34.61;22.80;97860.06;5062424;28;19927;-86
2023/07/12 04:14:31;;;;;;;;;;;;;;;34.62;22.56;97858.78;5059032;28;20043;-86
2023/07/12 04:16:57;;;;;;;;;;;;;;;34.92;22.97;97859.16;5060416;28;19982;-86
2023/07/12 04:19:23;;;;;;;;;;;;;;;34.76;22.27;97857.03;5055682;28;20458;-87
2023/07/12 04:21:49;;;;;;;;;;;;;;;34.45;23.12;97849.34;5064492;28;19927;-87
2023/07/12 04:24:15;;;;;;;;;;;;;;;34.40;23.53;97850.09;5058473;28;19921;-86
2023/07/12 04:26:41;;;;;;;;;;;;;;;34.45;23.25;97845.75;5061427;28;19920;-85
2023/07/12 04:29:07;;;;;;;;;;;;;;;34.55;23.76;97847.09;5060239;28;19971;-84
2023/07/12 04:31:33;;;;;;;;;;;;;;;34.82;23.33;97843.59;5059487;28;20346;-89
2023/07/12 04:33:59;;;;;;;;;;;;;;;34.98;23.23;97856.34;5059844;28;19925;-90
2023/07/12 04:36:25;;;;;;;;;;;;;;;35.01;22.20;97855.31;5069333;28;19978;-89
2023/07/12 04:38:51;;;;;;;;;;;;;;;35.00;22.51;97845.97;5069545;28;19921;-88
2023/07/12 04:41:17;;;;;;;;;;;;;;;35.04;24.00;97845.72;5071632;28;19943;-89
2023/07/12 04:43:43;;;;;;;;;;;;;;;35.02;23.44;97849.13;5065446;28;19943;-89
2023/07/12 04:46:09;;;;;;;;;;;;;;;35.07;24.18;97845.50;5063694;28;20344;-87
2023/07/12 04:48:35;;;;;;;;;;;;;;;35.17;23.04;97841.09;5064750;28;20316;-89
2023/07/12 04:51:03;;;;;;;;;;;;;;;35.27;23.60;97833.84;5060449;28;19979;-88
2023/07/12 04:53:29;;;;;;;;;;;;;;;35.07;23.62;97841.84;5059699;28;19974;-89
2023/07/12 04:55:55;;;;;;;;;;;;;;;34.98;23.10;97839.22;5065886;28;20403;-88
2023/07/12 04:58:22;;;;;;;;;;;;;;;34.86;25.34;97829.84;5055374;28;19924;-87
2023/07/12 05:00:48;;;;;;;;;;;;;;;34.76;25.51;97831.34;5070695;28;19920;-87
2023/07/12 05:03:15;;;;;;;;;;;;;;;34.72;24.88;97828.78;5070355;28;20059;-88
2023/07/12 05:05:41;;;;;;;;;;;;;;;34.80;24.27;97829.03;5053856;28;19924;-87
2023/07/12 05:08:08;;;;;;;;;;;;;;;35.02;23.90;97834.06;5054858;28;19928;-89
2023/07/12 05:10:34;;;;;;;;;;;;;;;35.14;24.01;97832.78;5055085;28;19924;-89
2023/07/12 05:13:00;;;;;;;;;;;;;;;35.12;24.29;97824.75;5070981;28;19917;-89
2023/07/12 05:15:26;;;;;;;;;;;;;;;35.24;24.61;97825.53;5073944;28;19995;-89
2023/07/12 05:17:52;;;;;;;;;;;;;;;35.42;24.43;97820.13;5075302;28;19943;-89
2023/07/12 05:20:18;;;;;;;;;;;;;;;35.47;23.66;97818.56;5070065;28;19967;-89
2023/07/12 05:22:47;;;;;;;;;;;;;;;35.07;23.94;97808.38;5053090;28;20319;-89
2023/07/12 05:25:13;;;;;;;;;;;;;;;35.08;23.88;97804.22;5066812;28;19922;-90
2023/07/12 05:27:39;;;;;;;;;;;;;;;35.24;24.21;97803.47;5074992;28;19967;-88
2023/07/12 05:30:06;;;;;;;;;;;;;;;35.34;23.72;97810.50;5075003;28;19969;-89
2023/07/12 05:32:32;;;;;;;;;;;;;;;35.43;23.67;97804.53;5069977;28;19924;-89
2023/07/12 05:34:58;;;;;;;;;;;;;;;35.15;24.15;97814.38;5065570;28;19928;-88
2023/07/12 05:37:24;;;;;;;;;;;;;;;35.04;23.73;97805.78;5067512;28;19917;-89
2023/07/12 05:39:50;;;;;;;;;;;;;;;35.15;24.57;97788.69;5070447;28;19927;-88
2023/07/12 05:42:16;;;;;;;;;;;;;;;35.02;24.22;97789.19;5065263;28;19928;-89
2023/07/12 05:44:42;;;;;;;;;;;;;;;35.17;24.11;97788.94;5073505;28;19916;-89
2023/07/12 05:47:08;;;;;;;;;;;;;;;35.47;24.53;97801.41;5053234;28;19927;-89
2023/07/12 05:49:35;;;;;;;;;;;;;;;35.68;23.56;97796.25;5054609;28;20007;-87
2023/07/12 05:52:01;;;;;;;;;;;;;;;35.67;23.71;97809.75;5072364;28;20002;-89
2023/07/12 05:54:28;;;;;;;;;;;;;;;35.70;23.99;97796.50;5067663;28;19917;-88
2023/07/12 05:56:54;;;;;;;;;;;;;;;35.61;25.24;97799.63;5057971;28;19929;-91
2023/07/12 05:59:21;;;;;;;;;;;;;;;35.57;24.21;97805.59;5069365;28;20375;-90
2023/07/12 06:01:48;;;;;;;;;;;;;;;35.70;24.65;97808.72;5074295;28;19931;-90
2023/07/12 06:04:14;;;;;;;;;;;;;;;35.95;24.47;97801.13;5074389;28;20007;-88
2023/07/12 06:06:40;;;;;;;;;;;;;;;35.92;24.14;97800.09;5072352;28;19942;-89
2023/07/12 06:09:06;;;;;;;;;;;;;;;36.00;25.02;97801.16;5054298;28;19928;-91
2023/07/12 06:11:32;;;;;;;;;;;;;;;36.16;25.02;97807.34;5060007;28;19947;-91
2023/07/12 06:13:58;;;;;;;;;;;;;;;36.15;24.71;97798.00;5071789;28;19921;-89
2023/07/12 06:16:24;;;;;;;;;;;;;;;36.08;25.71;97797.75;5068413;28;19931;-89
2023/07/12 06:18:50;;;;;;;;;;;;;;;36.15;26.31;97794.38;5072682;28;19917;-91
2023/07/12 06:21:16;;;;;;;;;;;;;;;36.33;24.45;97791.72;5071601;28;19928;-91
2023/07/12 06:23:42;;;;;;;;;;;;;;;36.40;25.10;97801.81;5072336;28;19963;-88
2023/07/12 06:26:08;;;;;;;;;;;;;;;36.52;24.34;97803.38;5070033;28;20025;-90
2023/07/12 06:28:34;;;;;;;;;;;;;;;36.48;24.23;97814.31;5061621;28;20400;-90
2023/07/12 06:31:05;;;;;;;;;;;;;;;36.69;25.00;97812.63;5058721;28;19924;-90
2023/07/12 06:33:31;;;;;;;;;;;;;;;36.89;24.06;97805.78;5056354;28;19924;-90
2023/07/12 06:35:57;;;;;;;;;;;;;;;36.78;23.64;97795.19;5073424;28;19920;-88
2023/07/12 06:38:23;;;;;;;;;;;;;;;36.74;24.62;97791.78;5073874;28;19939;-89
2023/07/12 06:40:49;;;;;;;;;;;;;;;37.12;24.88;97793.69;5060873;28;19962;-90
2023/07/12 06:43:15;;;;;;;;;;;;;;;37.56;23.34;97789.72;5052643;28;20027;-90
2023/07/12 06:45:43;;;;;;;;;;;;;;;38.12;23.10;97787.09;5056532;28;20396;-90
2023/07/12 06:48:09;;;;;;;;;;;;;;;38.14;22.56;97773.00;5073609;28;20031;-89
2023/07/12 06:50:35;;;;;;;;;;;;;;;38.45;22.96;97763.78;5071377;28;20027;-90
2023/07/12 06:53:01;;;;;;;;;;;;;;;38.81;21.84;97763.63;5076799;28;19920;-88
2023/07/12 06:55:27;;;;;;;;;;;;;;;39.29;21.57;97760.53;5071118;28;19925;-90
2023/07/12 06:57:53;;;;;;;;;;;;;;;39.07;22.46;97755.13;5074344;28;19974;-89
2023/07/12 07:00:19;;;;;;;;;;;;;;;38.59;21.03;97764.66;5074835;28;19920;-91
2023/07/12 07:02:45;;;;;;;;;;;;;;;38.80;21.36;97762.84;5075360;28;19951;-89
2023/07/12 07:05:11;;;;;;;;;;;;;;;39.45;22.09;97767.31;5074989;28;19997;-90
2023/07/12 07:07:37;;;;;;;;;;;;;;;40.07;21.15;97765.75;5075654;28;20306;-90
2023/07/12 07:10:03;;;;;;;;;;;;;;;40.35;20.58;97770.94;5075672;28;19964;-90
2023/07/12 07:12:30;;;;;;;;;;;;;;;40.45;20.57;97760.53;5075742;28;20014;-90
2023/07/12 07:14:56;;;;;;;;;;;;;;;40.17;21.61;97754.56;5076024;28;19920;-90
2023/07/12 07:17:22;;;;;;;;;;;;;;;40.28;19.06;97748.59;5075421;28;19946;-89
2023/07/12 07:19:48;;;;;;;;;;;;;;;40.12;20.63;97755.47;5068579;28;20296;-90
2023/07/12 07:22:14;;;;;;;;;;;;;;;40.33;20.86;97751.34;5074976;28;19920;-90
2023/07/12 07:24:40;;;;;;;;;;;;;;;40.79;19.35;97751.97;5074494;28;20042;-90
2023/07/12 07:27:06;;;;;;;;;;;;;;;40.58;20.04;97746.16;5075953;28;19912;-90
2023/07/12 07:29:32;;;;;;;;;;;;;;;40.31;19.63;97744.63;5072983;28;19927;-90
2023/07/12 07:31:58;;;;;;;;;;;;;;;39.97;20.95;97744.47;5075970;28;19923;-89
2023/07/12 07:34:24;;;;;;;;;;;;;;;39.58;20.87;97736.56;5074534;28;19925;-89
2023/07/12 07:36:51;;;;;;;;;;;;;;;39.54;21.81;97736.06;5072036;28;20093;-89
2023/07/12 07:39:17;;;;;;;;;;;;;;;39.58;21.48;97727.94;5072133;28;19920;-90
2023/07/12 07:41:43;;;;;;;;;;;;;;;39.87;22.46;97735.50;5075827;28;19923;-90
2023/07/12 07:44:09;;;;;;;;;;;;;;;40.21;21.56;97706.88;5075461;28;20019;-90
2023/07/12 07:46:35;;;;;;;;;;;;;;;39.79;21.17;97717.38;5075224;28;19955;-90
2023/07/12 07:49:01;;;;;;;;;;;;;;;39.70;21.68;97714.91;5074243;28;20402;-89
2023/07/12 07:51:27;;;;;;;;;;;;;;;39.23;22.30;97702.41;5075571;28;19921;-89
2023/07/12 07:53:53;;;;;;;;;;;;;;;38.85;21.34;97698.81;5072644;28;19956;-90
2023/07/12 07:56:20;;;;;;;;;;;;;;;38.97;21.58;97699.41;5074866;28;19929;-89
2023/07/12 07:58:46;;;;;;;;;;;;;;;38.93;22.67;97696.09;5075437;28;19916;-89
2023/07/12 08:01:12;;;;;;;;;;;;;;;38.97;21.88;97693.66;5075815;28;19916;-89
2023/07/12 08:03:39;;;;;;;;;;;;;;;38.92;21.39;97692.44;5074001;28;20007;-90
2023/07/12 08:06:05;;;;;;;;;;;;;;;38.87;22.70;97695.38;5075422;28;19956;-89
2023/07/12 08:08:33;;;;;;;;;;;;;;;39.22;22.42;97706.59;5075208;28;19974;-89
2023/07/12 08:10:59;;;;;;;;;;;;;;;39.43;24.31;97712.50;5074686;28;19935;-90
2023/07/12 08:13:25;;;;;;;;;;;;;;;39.64;22.58;97708.50;5073778;28;19917;-89
2023/07/12 08:15:54;;;;;;;;;;;;;;;39.55;22.52;97702.38;5075157;28;19917;-91
2023/07/12 08:18:20;;;;;;;;;;;;;;;39.23;24.43;97693.78;5066780;28;19943;-89
2023/07/12 08:20:46;;;;;;;;;;;;;;;39.25;24.69;97685.41;5074490;28;20383;-90
2023/07/12 08:23:12;;;;;;;;;;;;;;;39.36;22.95;97699.56;5073361;28;19928;-90
2023/07/12 08:25:38;;;;;;;;;;;;;;;39.90;22.95;97702.75;5073894;28;19920;-90
2023/07/12 08:28:04;;;;;;;;;;;;;;;40.48;20.69;97702.66;5073759;28;19912;-90
2023/07/12 08:30:30;;;;;;;;;;;;;;;40.82;21.68;97704.78;5075126;28;19959;-89
2023/07/12 08:32:57;;;;;;;;;;;;;;;41.06;21.48;97702.38;5074645;28;19912;-90
2023/07/12 08:35:23;;;;;;;;;;;;;;;40.37;21.92;97694.25;5074927;28;19978;-90
2023/07/12 08:37:49;;;;;;;;;;;;;;;40.36;20.99;97698.44;5072399;28;19916;-90
2023/07/12 08:40:15;;;;;;;;;;;;;;;40.43;20.25;97703.53;5075190;28;19952;-90
2023/07/12 08:42:42;;;;;;;;;;;;;;;40.48;20.69;97699.00;5073358;28;20391;-90
2023/07/12 08:45:20;;;;;;;;;;;;;;;39.92;21.78;97688.59;5073429;28;19916;-87
2023/07/12 08:47:48;;;;;;;;;;;;;;;40.68;21.61;97692.53;5074697;28;19956;-87
2023/07/12 08:50:15;;;;;;;;;;;;;;;41.18;19.79;97692.13;5075095;28;19916;-87
2023/07/12 08:52:42;;;;;;;;;;;;;;;41.22;20.25;97697.50;5073387;28;19979;-88
2023/07/12 08:55:12;;;;;;;;;;;;;;;41.25;20.35;97697.19;5074414;28;20053;-88
2023/07/12 08:57:38;;;;;;;;;;;;;;;41.57;20.07;97691.13;5075159;28;19921;-88
2023/07/12 09:00:34;;;;;;;;;;;;;;;41.34;19.15;97695.94;5074457;28;19920;-88
2023/07/12 09:03:00;;;;;;;;;;;;;;;41.58;18.82;97686.13;5058771;28;19924;-88
2023/07/12 09:05:28;;;;;;;;;;;;;;;41.85;18.86;97682.50;5074792;28;20385;-88
2023/07/12 09:07:57;;;;;;;;;;;;;;;41.84;19.19;97686.75;5073966;28;19924;-87
2023/07/12 09:10:32;;;;;;;;;;;;;;;41.94;18.73;97698.53;5074150;28;20015;-88
2023/07/12 09:13:01;;;;;;;;;;;;;;;42.07;19.36;97701.31;5074213;28;20288;-88
2023/07/12 09:15:37;;;;;;;;;;;;;;;42.26;18.30;97690.28;5072161;28;19924;-87
2023/07/12 09:18:08;;;;;;;;;;;;;;;41.99;19.30;97689.72;5070177;28;20412;-86
2023/07/12 09:20:37;;;;;;;;;;;;;;;42.32;19.75;97690.88;5069614;28;19927;-86
2023/07/12 09:23:05;;;;;;;;;;;;;;;42.56;18.75;97684.66;5071319;28;20284;-88
2023/07/12 09:25:35;;;;;;;;;;;;;;;42.75;18.40;97686.44;5072209;28;19970;-88
2023/07/12 09:28:01;;;;;;;;;;;;;;;42.73;19.34;97692.03;5074106;28;20288;-88
2023/07/12 09:30:29;;;;;;;;;;;;;;;42.73;17.92;97689.16;5073922;28;19920;-87
2023/07/12 09:32:56;;;;;;;;;;;;;;;42.53;18.61;97702.34;5074870;28;20364;-88
2023/07/12 09:35:22;;;;;;;;;;;;;;;42.37;18.42;97713.03;5070965;28;19925;-87
2023/07/12 09:37:56;;;;;;;;;;;;;;;41.88;19.46;97718.09;5073542;28;19974;-86
2023/07/12 09:40:22;;;;;;;;;;;;;;;41.36;19.41;97718.44;5073439;28;19913;-85
2023/07/12 09:42:48;;;;;;;;;;;;;;;41.30;20.30;97721.44;5072404;28;19928;-87
2023/07/12 09:45:14;;;;;;;;;;;;;;;40.89;22.09;97736.53;5073036;28;19944;-86
2023/07/12 09:47:56;;;;;;;;;;;;;;;40.98;22.28;97759.13;5072604;28;19921;-87
2023/07/12 09:50:31;;;;;;;;;;;;;;;38.80;25.28;97770.66;5065195;28;20019;-85
2023/07/12 09:52:57;;;;;;;;;;;;;;;38.17;27.45;97779.75;5071302;28;19947;-87
2023/07/12 09:55:29;;;;;;;;;;;;;;;37.47;27.88;97772.09;5072951;28;20380;-86
2023/07/12 09:58:13;;;;;;;;;;;;;;;37.60;27.57;97766.53;5072675;28;19917;-86
2023/07/12 10:00:45;;;;;;;;;;;;;;;37.88;28.49;97741.25;5073917;28;19970;-86
2023/07/12 10:03:15;;;;;;;;;;;;;;;38.18;28.86;97744.03;5073368;28;19923;-87
2023/07/12 10:06:05;;;;;;;;;;;;;;;38.50;28.43;97727.75;5072637;28;19931;-86
2023/07/12 10:08:50;;;;;;;;;;;;;;;37.25;31.34;97716.50;5053400;28;19928;-86
2023/07/12 10:11:28;;;;;;;;;;;;;;;36.18;34.17;97705.44;5088720;28;20335;-86
2023/07/12 10:13:57;;;;;;;;;;;;;;;36.46;33.60;97691.03;5055642;28;20296;-87
2023/07/12 10:16:26;;;;;;;;;;;;;;;36.79;33.20;97702.28;5068745;28;19924;-87
2023/07/12 10:18:52;;;;;;;;;;;;;;;37.29;32.78;97696.97;5072363;28;19925;-87
2023/07/12 10:21:21;;;;;;;;;;;;;;;37.86;32.43;97689.41;5072244;28;19928;-87
2023/07/12 10:23:58;;;;;;;;;;;;;;;38.01;32.14;97687.66;5072552;28;19997;-87
2023/07/12 10:26:24;;;;;;;;;;;;;;;37.67;32.63;97685.69;5071657;28;20342;-87
2023/07/12 10:29:10;;;;;;;;;;;;;;;37.39;33.34;97678.13;5069291;28;19921;-87
2023/07/12 10:31:45;;;;;;;;;;;;;;;37.47;33.87;97671.81;5072750;28;19942;-87
2023/07/12 10:34:24;;;;;;;;;;;;;;;37.59;33.32;97674.03;5073198;28;20455;-88
2023/07/12 10:37:23;;;;;;;;;;;;;;;38.78;30.12;97675.69;5094356;27;19970;-91
2023/07/12 10:39:50;;;;;;;;;;;;;;;39.45;31.06;97681.91;5093709;28;19956;-89
2023/07/12 10:42:25;;;;;;;;;;;;;;;39.53;30.82;97682.03;5093952;28;20018;-83
2023/07/12 10:44:53;;;;;;;;;;;;;;;40.01;29.16;97687.41;5110512;28;19916;-82
2023/07/12 10:47:20;;;;;;;;;;;;;;;40.76;28.89;97693.38;5101793;28;19916;-84
2023/07/12 10:49:48;;;;;;;;;;;;;;;40.80;26.53;97684.41;5091015;28;19926;-85
2023/07/12 10:52:24;;;;;;;;;;;;;;;41.04;29.17;97689.84;5104139;28;19920;-86
2023/07/12 10:55:02;;;;;;;;;;;;;;;40.88;28.17;97691.03;5111174;28;19916;-85
2023/07/12 10:57:36;;;;;;;;;;;;;;;41.14;27.46;97688.03;5111129;28;19946;-84
2023/07/12 11:00:18;;;;;;;;;;;;;;;41.31;27.37;97682.66;5108794;28;19917;-86
2023/07/12 11:02:58;;;;;;;;;;;;;;;41.02;27.96;97681.78;5126463;28;20325;-84
2023/07/12 11:05:43;;;;;;;;;;;;;;;41.22;27.46;97677.34;5118862;28;19924;-86
2023/07/12 11:08:28;;;;;;;;;;;;;;;41.55;27.13;97702.44;5129741;28;20276;-86
2023/07/12 11:10:54;;;;;;;;;;;;;;;41.86;26.18;97695.59;5130230;27;19920;-87
2023/07/12 11:13:21;;;;;;;;;;;;;;;41.72;24.64;97705.69;5129180;28;19927;-86
2023/07/12 11:15:51;;;;;;;;;;;;;;;41.60;24.56;97709.41;5103659;28;20296;-86
2023/07/12 11:18:22;;;;;;;;;;;;;;;40.82;25.70;97714.16;5107696;28;19973;-84
2023/07/12 11:20:56;;;;;;;;;;;;;;;40.87;27.08;97716.16;5110312;27;19916;-84
2023/07/12 11:23:30;;;;;;;;;;;;;;;40.98;26.32;97713.06;5123768;28;20023;-85
2023/07/12 11:25:58;;;;;;;;;;;;;;;40.67;26.23;97717.66;5115672;28;19942;-83
2023/07/12 11:28:41;;;;;;;;;;;;;;;40.64;25.47;97713.00;5125875;28;19966;-83
2023/07/12 11:31:18;;;;;;;;;;;;;;;41.25;25.38;97711.59;5117441;28;19970;-84
2023/07/12 11:34:14;;;;;;;;;;;;;;;41.54;24.88;97708.78;5117265;28;19926;-86
2023/07/12 11:36:40;;;;;;;;;;;;;;;40.63;29.04;97710.69;5103489;28;19924;-83
2023/07/12 11:39:14;;;;;;;;;;;;;;;40.85;25.05;97701.56;5124581;28;19915;-84
2023/07/12 11:41:52;;;;;;;;;;;;;;;41.27;25.08;97702.41;5099205;28;19956;-86
2023/07/12 11:44:18;;;;;;;;;;;;;;;41.37;24.33;97708.44;5118985;28;19964;-85
2023/07/12 11:46:44;;;;;;;;;;;;;;;41.28;24.42;97704.72;5115407;28;19922;-86
2023/07/12 11:49:13;;;;;;;;;;;;;;;41.04;24.49;97715.78;5102218;28;19920;-86
2023/07/12 11:51:40;;;;;;;;;;;;;;;40.01;24.50;97719.03;5088488;28;19917;-84
2023/07/12 11:54:16;;;;;;;;;;;;;;;39.45;25.07;97715.59;5099400;28;20019;-86
2023/07/12 11:56:43;;;;;;;;;;;;;;;39.59;24.79;97722.94;5105003;28;19980;-85
2023/07/12 11:59:12;;;;;;;;;;;;;;;39.00;25.35;97722.06;5096296;28;19920;-86
2023/07/12 12:01:38;;;;;;;;;;;;;;;38.67;25.44;97716.81;5096436;28;20010;-83
2023/07/12 12:04:04;;;;;;;;;;;;;;;38.41;31.36;97726.03;5096000;28;19964;-82
2023/07/12 12:06:31;;;;;;;;;;;;;;;38.28;25.69;97736.63;5096198;28;20410;-84
2023/07/12 12:08:58;;;;;;;;;;;;;;;38.36;25.94;97729.75;5090688;28;20006;-84
2023/07/12 12:11:28;;;;;;;;;;;;;;;38.59;24.82;97735.97;5083203;28;19916;-85
2023/07/12 12:13:55;;;;;;;;;;;;;;;38.32;25.18;97739.97;5093260;28;19924;-86
2023/07/12 12:16:25;;;;;;;;;;;;;;;38.38;24.81;97741.47;5075978;28;20003;-85
2023/07/12 12:18:59;;;;;;;;;;;;;;;38.51;24.88;97738.66;5075871;28;19916;-84
2023/07/12 12:21:25;;;;;;;;;;;;;;;37.93;27.38;97732.56;5091301;28;20272;-85
2023/07/12 12:23:56;;;;;;;;;;;;;;;37.90;25.84;97724.28;5108103;28;19927;-85
2023/07/12 12:26:25;;;;;;;;;;;;;;;38.39;25.19;97725.81;5098367;28;19920;-87
2023/07/12 12:28:59;;;;;;;;;;;;;;;38.45;25.21;97717.09;5104833;28;19916;-86
2023/07/12 12:31:27;;;;;;;;;;;;;;;38.24;25.01;97736.91;5096586;28;19916;-83
2023/07/12 12:34:03;;;;;;;;;;;;;;;38.21;25.36;97743.72;5099350;28;19930;-84
2023/07/12 12:36:30;;;;;;;;;;;;;;;37.84;25.74;97752.22;5128221;27;20293;-83
2023/07/12 12:38:59;;;;;;;;;;;;;;;37.75;26.31;97746.81;5106424;27;20268;-85
2023/07/12 12:41:32;;;;;;;;;;;;;;;37.89;25.78;97755.03;5097475;28;20375;-86
2023/07/12 12:44:13;;;;;;;;;;;;;;;38.14;25.51;97755.78;5104343;28;19923;-85
2023/07/12 12:46:40;;;;;;;;;;;;;;;37.99;25.80;97746.84;5115988;27;19923;-84
2023/07/12 12:49:25;;;;;;;;;;;;;;;37.82;26.05;97754.81;5116723;27;19982;-84
2023/07/12 12:51:52;;;;;;;;;;;;;;;37.83;26.49;97759.28;5125528;27;19919;-84
2023/07/12 12:54:18;;;;;;;;;;;;;;;37.59;26.78;97762.09;5135677;27;20313;-83